Temperatura - Umidità - Pioggia orarie dal 14-05-2019 al 22-05-2019

Intensità - Direzione vento orarie dal 14-05-2019 al 22-05-2019

Dati orari da stazione meteo dal 14-05-2019 al 22-05-2019

Nome Stazione Data Ora Temperatura [°C] Umidità [%] Pioggia [mm] Intensità vento[km/h] Direzione vento [°]
Savigliano 14-05-2019 02:00 9.5 74.4 0 0 30
Savigliano 14-05-2019 03:00 9.5 74 0 0 30
Savigliano 14-05-2019 04:00 7.4 80.1 0 0.4 30
Savigliano 14-05-2019 05:00 7 80.9 0 0 30
Savigliano 14-05-2019 06:00 6.7 81.7 0 0.4 30
Savigliano 14-05-2019 07:00 8.3 77.8 0 1.4 30
Savigliano 14-05-2019 08:00 9.6 77.5 0 0.7 31
Savigliano 14-05-2019 09:00 13.3 64.9 0 0.7 31
Savigliano 14-05-2019 10:00 16.2 55.6 0 1.1 42
Savigliano 14-05-2019 11:00 17.4 51.4 0 2.5 37
Savigliano 14-05-2019 12:00 17.5 45.3 0 4 36
Savigliano 14-05-2019 13:00 19.1 44.8 0 3.2 37
Savigliano 14-05-2019 14:00 19.8 44.9 0 4.7 36
Savigliano 14-05-2019 15:00 19.9 41.8 0 5.8 35
Savigliano 14-05-2019 16:00 19.9 36.1 0 5.8 35
Savigliano 14-05-2019 17:00 19.7 36.3 0 5 34
Savigliano 14-05-2019 18:00 19 36.2 0 5.8 34
Savigliano 14-05-2019 19:00 17.3 41.2 0 5 86
Savigliano 14-05-2019 20:00 16.8 44.3 0 2.5 35
Savigliano 14-05-2019 21:00 14.9 51.2 0 2.2 38
Savigliano 14-05-2019 22:00 14.7 55.6 0 2.2 36
Savigliano 14-05-2019 23:00 13.1 61.6 0 3.6 37
Savigliano 15-05-2019 00:00 11 73.9 0 5.4 46
Savigliano 15-05-2019 01:00 9.3 84.9 0 2.9 45
Savigliano 15-05-2019 02:00 9.8 89.1 0 2.9 29
Savigliano 15-05-2019 03:00 9.7 91.3 0 1.4 30
Savigliano 15-05-2019 04:00 9.8 86.2 0 1.1 30
Savigliano 15-05-2019 05:00 9.8 86.1 0 1.4 39
Savigliano 15-05-2019 06:00 9.3 85.3 0 1.1 43
Savigliano 15-05-2019 07:00 7.5 81.3 0 2.9 30
Savigliano 15-05-2019 08:00 7.6 71.8 0 3.2 30
Savigliano 15-05-2019 09:00 11.5 61.8 0 1.1 31
Savigliano 15-05-2019 10:00 12.5 54.2 0 1.8 43
Savigliano 15-05-2019 11:00 15 40.2 0 1.8 32
Savigliano 15-05-2019 12:00 15.3 35.6 0 3.2 39
Savigliano 15-05-2019 13:00 16.3 36.2 0 2.5 39
Savigliano 15-05-2019 14:00 16.8 35.3 0 2.9 216
Savigliano 15-05-2019 15:00 17 33.4 0 2.5 33
Savigliano 15-05-2019 16:00 17.1 32.3 0 3.2 34
Savigliano 15-05-2019 17:00 17.1 35.9 0 4.7 41
Savigliano 15-05-2019 18:00 15.1 36 0 8.6 34
Savigliano 15-05-2019 19:00 14.7 43.6 0 10.1 34
Savigliano 15-05-2019 20:00 14.4 48.5 0 9.7 35
Savigliano 15-05-2019 21:00 12.2 47.3 0 6.5 34
Savigliano 15-05-2019 22:00 12.1 54.3 0 3.6 34
Savigliano 15-05-2019 23:00 10.4 60 0 0 34
Savigliano 16-05-2019 00:00 9.5 66 0 0 29
Savigliano 16-05-2019 01:00 9.2 68.1 0 0 29
Savigliano 16-05-2019 02:00 7.1 72.5 0 0 29
Savigliano 16-05-2019 03:00 7.1 73.3 0 0.4 29
Savigliano 16-05-2019 04:00 6.6 79 0 0 29
Savigliano 16-05-2019 05:00 4.7 83.7 0 0.4 30
Savigliano 16-05-2019 06:00 4.2 84.9 0 0.4 30
Savigliano 16-05-2019 07:00 4.8 84 0 0.4 30
Savigliano 16-05-2019 08:00 7.5 78.1 0 0.4 30
Savigliano 16-05-2019 09:00 11.6 66.8 0 1.1 30
Savigliano 16-05-2019 10:00 12.1 59.8 0 2.5 36
Savigliano 16-05-2019 11:00 14.5 53.6 0 2.2 37
Savigliano 16-05-2019 12:00 15 51.5 0 2.9 35
Savigliano 16-05-2019 13:00 16.2 47.9 0 3.2 33
Savigliano 16-05-2019 14:00 17.1 45.2 0 2.9 36
Savigliano 16-05-2019 15:00 17.7 45.2 0 2.5 35
Savigliano 16-05-2019 16:00 17.9 45.6 0 2.2 46
Savigliano 16-05-2019 17:00 18.5 44.5 0 1.4 33
Savigliano 16-05-2019 18:00 17.3 48.4 0 1.1 32
Savigliano 16-05-2019 19:00 17.3 52.1 0 0.4 29
Savigliano 16-05-2019 20:00 16.1 58.6 0 0.4 29
Savigliano 16-05-2019 21:00 14.6 60.7 0 0.7 29
Savigliano 16-05-2019 22:00 14.9 68.3 0 1.1 30
Savigliano 16-05-2019 23:00 14.4 74.2 0 1.1 30
Savigliano 17-05-2019 00:00 13.4 74.4 0 1.4 29
Savigliano 17-05-2019 01:00 13.9 73.8 0 0.4 29
Savigliano 17-05-2019 02:00 12.4 78.6 0 0.4 30
Savigliano 17-05-2019 03:00 12.1 80.8 0 0 30
Savigliano 17-05-2019 04:00 12.2 80 0 0.4 30
Savigliano 17-05-2019 05:00 11.8 79.6 0 0.4 29
Savigliano 17-05-2019 06:00 12.2 80.5 0 0.4 29
Savigliano 17-05-2019 07:00 12.5 81.8 0 0.7 31
Savigliano 17-05-2019 08:00 12.2 86.5 0 1.4 29
Savigliano 17-05-2019 09:00 11.9 80.1 0 1.1 33
Savigliano 17-05-2019 10:00 11.8 79.3 0 1.1 30
Savigliano 17-05-2019 11:00 12.8 78.3 0 2.2 34
Savigliano 17-05-2019 12:00 12.7 79.6 0 3.2 46
Savigliano 17-05-2019 13:00 12.9 75.8 0 5.8 45
Savigliano 17-05-2019 14:00 12.8 77.2 0 5.4 41
Savigliano 17-05-2019 15:00 12.3 83.8 0 3.2 33
Savigliano 17-05-2019 16:00 12 86.2 0 3.2 32
Savigliano 17-05-2019 17:00 10.5 86.9 0 2.9 34
Savigliano 17-05-2019 18:00 9.7 85.9 0.2 1.8 32
Savigliano 17-05-2019 19:00 9.2 90.8 0 2.2 30
Savigliano 17-05-2019 20:00 9.1 89.7 0 0.7 30
Savigliano 17-05-2019 21:00 9.8 89.7 0 1.1 29
Savigliano 17-05-2019 22:00 9.8 91.9 0 1.4 30
Savigliano 17-05-2019 23:00 9.5 92.2 0.2 2.2 30
Savigliano 18-05-2019 00:00 7.8 90.2 0.1 2.9 30
Savigliano 18-05-2019 01:00 7.5 90.2 0 0.7 30
Savigliano 18-05-2019 02:00 7.4 90.3 0 0 30
Savigliano 18-05-2019 03:00 7.2 90.6 0 1.8 29
Savigliano 18-05-2019 04:00 7.3 90.7 0 1.1 29
Savigliano 18-05-2019 05:00 8.3 90.9 0 0.7 29
Savigliano 18-05-2019 06:00 9.3 90.7 0 0 29
Savigliano 18-05-2019 07:00 8 90.4 0.1 1.1 29
Savigliano 18-05-2019 08:00 7.5 91.3 0.4 2.9 29
Savigliano 18-05-2019 09:00 7.5 91.9 0.1 1.4 29
Savigliano 18-05-2019 10:00 8.7 92.4 0 1.4 30
Savigliano 18-05-2019 11:00 9.2 92.5 0.2 2.5 29
Savigliano 18-05-2019 12:00 9.4 92.7 0.2 2.9 29
Savigliano 18-05-2019 13:00 9.8 92.8 0.2 2.2 32
Savigliano 18-05-2019 14:00 9.2 92.7 0.1 2.5 30
Savigliano 18-05-2019 15:00 9.6 92.6 0.2 2.2 35
Savigliano 18-05-2019 16:00 11.2 92.3 0 2.5 266
Savigliano 18-05-2019 17:00 10.1 90.8 0 2.9 181
Savigliano 18-05-2019 18:00 9.6 91.4 0.1 1.8 269
Savigliano 18-05-2019 19:00 9.5 91.6 0.1 1.1 31
Savigliano 18-05-2019 20:00 9.3 91.8 0.1 0.4 29
Savigliano 18-05-2019 21:00 9.6 92.2 0 0.4 29
Savigliano 18-05-2019 22:00 10.1 92.5 0 0.4 29
Savigliano 18-05-2019 23:00 10 92.7 0 0.4 29
Savigliano 19-05-2019 00:00 10 92.7 0 0 29
Savigliano 19-05-2019 01:00 10.1 92.8 0 0 29
Savigliano 19-05-2019 02:00 10 92.9 0 0 29
Savigliano 19-05-2019 03:00 10.1 94.2 0 0 29
Savigliano 19-05-2019 04:00 10 95.6 0 0 29
Savigliano 19-05-2019 05:00 10 95.8 0 0 29
Savigliano 19-05-2019 06:00 9.9 95.9 0 0 29
Savigliano 19-05-2019 07:00 9.7 96 0.1 0.4 30
Savigliano 19-05-2019 08:00 9.8 96.1 0 0.7 30
Savigliano 19-05-2019 09:00 10 96 0 0.7 30
Savigliano 19-05-2019 10:00 9.3 95 0 0.4 29
Savigliano 19-05-2019 11:00 9.9 92.3 0 0.4 29
Savigliano 19-05-2019 12:00 9.9 91.3 0.1 0.7 29
Savigliano 19-05-2019 13:00 10.8 91.3 0.1 1.1 29
Savigliano 19-05-2019 14:00 12.3 91.6 0 1.1 30
Savigliano 19-05-2019 15:00 14.5 83.6 0 1.8 31
Savigliano 19-05-2019 16:00 15.7 71.8 0 1.8 34
Savigliano 19-05-2019 17:00 15 67.4 0 1.8 34
Savigliano 19-05-2019 18:00 14.5 75 0 2.9 32
Savigliano 19-05-2019 19:00 14.8 76.2 0 1.4 31
Savigliano 19-05-2019 20:00 13.7 78.4 0 3.2 32
Savigliano 19-05-2019 21:00 11.9 85.7 0 2.5 32
Savigliano 19-05-2019 22:00 12.3 86.5 0 0 31
Savigliano 19-05-2019 23:00 12.5 89.8 0 0 31
Savigliano 20-05-2019 00:00 12.3 91.9 0 0 31
Savigliano 20-05-2019 01:00 12.2 92.5 0 0 29
Savigliano 20-05-2019 02:00 11 91.5 0 0.7 29
Savigliano 20-05-2019 03:00 10.4 91.1 0 0 29
Savigliano 20-05-2019 04:00 9.6 90.6 0 0 29
Savigliano 20-05-2019 05:00 9.8 91 0 0 29
Savigliano 20-05-2019 06:00 9.6 91.5 0 0.4 29
Savigliano 20-05-2019 07:00 9.9 92.1 0 0.4 29
Savigliano 20-05-2019 08:00 9.4 92.5 0 0.4 30
Savigliano 20-05-2019 09:00 11.5 91.6 0 1.1 31
Savigliano 20-05-2019 10:00 14.2 80 0 1.8 31
Savigliano 20-05-2019 11:00 14.7 74.2 0 2.2 31
Savigliano 20-05-2019 12:00 16.3 68.4 0 2.9 32
Savigliano 20-05-2019 13:00 17.3 63.1 0 1.1 31
Savigliano 20-05-2019 14:00 17.8 64.6 0 2.9 35
Savigliano 20-05-2019 15:00 18 61.1 0 5 35
Savigliano 20-05-2019 16:00 18.1 63.7 0 4.7 34
Savigliano 20-05-2019 17:00 17.9 67.1 0 8.3 35
Savigliano 20-05-2019 18:00 17.3 67.4 0 11.2 34
Savigliano 20-05-2019 19:00 16 72.5 0 8.6 34
Savigliano 20-05-2019 20:00 14.8 73.9 0 5.8 32
Savigliano 20-05-2019 21:00 14.6 74.3 0 2.9 32
Savigliano 20-05-2019 22:00 14 80 0 2.2 31
Savigliano 20-05-2019 23:00 12 80.4 0 0.4 31
Savigliano 21-05-2019 00:00 12.2 85.6 0 0.4 31
Savigliano 21-05-2019 01:00 10.4 85.4 0 2.9 31
Savigliano 21-05-2019 02:00 9.4 86.5 0 2.2 31
Savigliano 21-05-2019 03:00 9.1 89.2 0 1.1 166
Savigliano 21-05-2019 04:00 9.3 90.2 0 1.1 178
Savigliano 21-05-2019 05:00 9.2 88.6 0 2.5 197
Savigliano 21-05-2019 06:00 9.8 89.2 0 0.4 185
Savigliano 21-05-2019 07:00 9.4 91.3 0 0.4 171
Savigliano 21-05-2019 08:00 10.8 89.4 0 0.7 145
Savigliano 21-05-2019 09:00 13.6 81.7 0 2.9 157
Savigliano 21-05-2019 10:00 15.9 73.4 0 2.9 140
Savigliano 21-05-2019 11:00 17.9 66 0 4 135
Savigliano 21-05-2019 12:00 19.4 60.6 0 5.8 101
Savigliano 21-05-2019 13:00 19.9 60.5 0 7.2 97
Savigliano 21-05-2019 14:00 19.9 55.4 0 7.2 108
Savigliano 15-05-2019 00:20 0 0 0.1 0 0
Savigliano 15-05-2019 00:30 0 0 0.1 0 0
Savigliano 15-05-2019 00:35 0 0 0.1 0 0
Savigliano 15-05-2019 00:40 0 0 0.2 0 0
Savigliano 15-05-2019 00:45 0 0 0.1 0 0
Savigliano 15-05-2019 00:50 0 0 0.2 0 0
Savigliano 15-05-2019 00:55 0 0 0.1 0 0
Savigliano 15-05-2019 01:10 0 0 0.1 0 0
Savigliano 17-05-2019 15:25 0 0 0.1 0 0
Savigliano 17-05-2019 17:25 0 0 0.1 0 0
Savigliano 17-05-2019 17:30 0 0 0.1 0 0
Savigliano 17-05-2019 17:40 0 0 0.2 0 0
Savigliano 17-05-2019 17:45 0 0 0.1 0 0
Savigliano 17-05-2019 17:50 0 0 0.1 0 0
Savigliano 17-05-2019 17:55 0 0 0.1 0 0
Savigliano 17-05-2019 18:05 0 0 0.3 0 0
Savigliano 17-05-2019 18:15 0 0 0.1 0 0
Savigliano 17-05-2019 20:05 0 0 0.1 0 0
Savigliano 17-05-2019 22:30 0 0 0.4 0 0
Savigliano 17-05-2019 22:35 0 0 0.3 0 0
Savigliano 17-05-2019 22:40 0 0 0.1 0 0
Savigliano 17-05-2019 22:45 0 0 0.3 0 0
Savigliano 17-05-2019 22:50 0 0 0.3 0 0
Savigliano 17-05-2019 22:55 0 0 0.4 0 0
Savigliano 17-05-2019 23:05 0 0 0.1 0 0
Savigliano 17-05-2019 23:10 0 0 0.3 0 0
Savigliano 17-05-2019 23:15 0 0 0.7 0 0
Savigliano 17-05-2019 23:20 0 0 0.3 0 0
Savigliano 17-05-2019 23:25 0 0 0.1 0 0
Savigliano 17-05-2019 23:30 0 0 0.1 0 0
Savigliano 17-05-2019 23:50 0 0 0.1 0 0
Savigliano 17-05-2019 23:55 0 0 0.3 0 0
Savigliano 18-05-2019 00:05 0 0 0.1 0 0
Savigliano 18-05-2019 00:40 0 0 0.1 0 0
Savigliano 18-05-2019 00:55 0 0 0.1 0 0
Savigliano 18-05-2019 05:40 0 0 0.1 0 0
Savigliano 18-05-2019 06:45 0 0 0.1 0 0
Savigliano 18-05-2019 06:50 0 0 0.1 0 0
Savigliano 18-05-2019 07:10 0 0 0.2 0 0
Savigliano 18-05-2019 07:15 0 0 0.1 0 0
Savigliano 18-05-2019 07:20 0 0 0.1 0 0
Savigliano 18-05-2019 07:25 0 0 0.2 0 0
Savigliano 18-05-2019 07:30 0 0 0.5 0 0
Savigliano 18-05-2019 07:35 0 0 0.7 0 0
Savigliano 18-05-2019 07:40 0 0 0.2 0 0
Savigliano 18-05-2019 07:45 0 0 0.1 0 0
Savigliano 18-05-2019 07:50 0 0 0.1 0 0
Savigliano 18-05-2019 07:55 0 0 0.2 0 0
Savigliano 18-05-2019 08:05 0 0 0.2 0 0
Savigliano 18-05-2019 08:10 0 0 0.2 0 0
Savigliano 18-05-2019 08:15 0 0 0.2 0 0
Savigliano 18-05-2019 08:20 0 0 0.2 0 0
Savigliano 18-05-2019 08:25 0 0 0.1 0 0
Savigliano 18-05-2019 08:30 0 0 0.1 0 0
Savigliano 18-05-2019 08:35 0 0 0.1 0 0
Savigliano 18-05-2019 08:40 0 0 0.1 0 0
Savigliano 18-05-2019 08:45 0 0 0.1 0 0
Savigliano 18-05-2019 09:30 0 0 0.1 0 0
Savigliano 18-05-2019 09:50 0 0 0.1 0 0
Savigliano 18-05-2019 10:10 0 0 0.1 0 0
Savigliano 18-05-2019 10:15 0 0 0.1 0 0
Savigliano 18-05-2019 10:20 0 0 0.1 0 0
Savigliano 18-05-2019 10:25 0 0 0.1 0 0
Savigliano 18-05-2019 10:30 0 0 0.2 0 0
Savigliano 18-05-2019 10:40 0 0 0.1 0 0
Savigliano 18-05-2019 10:45 0 0 0.1 0 0
Savigliano 18-05-2019 10:55 0 0 0.2 0 0
Savigliano 18-05-2019 11:05 0 0 0.1 0 0
Savigliano 18-05-2019 11:10 0 0 0.1 0 0
Savigliano 18-05-2019 11:15 0 0 0.3 0 0
Savigliano 18-05-2019 11:20 0 0 0.1 0 0
Savigliano 18-05-2019 11:25 0 0 0.2 0 0
Savigliano 18-05-2019 11:30 0 0 0.1 0 0
Savigliano 18-05-2019 11:35 0 0 0.4 0 0
Savigliano 18-05-2019 11:45 0 0 0.1 0 0
Savigliano 18-05-2019 11:50 0 0 0.2 0 0
Savigliano 18-05-2019 11:55 0 0 0.3 0 0
Savigliano 18-05-2019 12:05 0 0 0.1 0 0
Savigliano 18-05-2019 12:10 0 0 0.2 0 0
Savigliano 18-05-2019 12:15 0 0 0.2 0 0
Savigliano 18-05-2019 12:20 0 0 0.2 0 0
Savigliano 18-05-2019 12:25 0 0 0.3 0 0
Savigliano 18-05-2019 12:30 0 0 0.2 0 0
Savigliano 18-05-2019 12:35 0 0 0.2 0 0
Savigliano 18-05-2019 12:40 0 0 0.2 0 0
Savigliano 18-05-2019 12:45 0 0 0.2 0 0
Savigliano 18-05-2019 12:55 0 0 0.1 0 0
Savigliano 18-05-2019 13:05 0 0 0.1 0 0
Savigliano 18-05-2019 13:10 0 0 0.1 0 0
Savigliano 18-05-2019 13:15 0 0 0.1 0 0
Savigliano 18-05-2019 13:20 0 0 0.1 0 0
Savigliano 18-05-2019 13:25 0 0 0.1 0 0
Savigliano 18-05-2019 13:35 0 0 0.1 0 0
Savigliano 18-05-2019 13:40 0 0 0.2 0 0
Savigliano 18-05-2019 13:50 0 0 0.1 0 0
Savigliano 18-05-2019 13:55 0 0 0.1 0 0
Savigliano 18-05-2019 14:05 0 0 0.1 0 0
Savigliano 18-05-2019 14:10 0 0 0.1 0 0
Savigliano 18-05-2019 14:15 0 0 0.1 0 0
Savigliano 18-05-2019 14:20 0 0 0.3 0 0
Savigliano 18-05-2019 14:25 0 0 0.3 0 0
Savigliano 18-05-2019 14:30 0 0 0.3 0 0
Savigliano 18-05-2019 14:35 0 0 0.1 0 0
Savigliano 18-05-2019 14:40 0 0 0.1 0 0
Savigliano 18-05-2019 14:45 0 0 0.1 0 0
Savigliano 18-05-2019 14:50 0 0 0.1 0 0
Savigliano 18-05-2019 14:55 0 0 0.1 0 0
Savigliano 18-05-2019 15:10 0 0 0.1 0 0
Savigliano 18-05-2019 15:40 0 0 0.1 0 0
Savigliano 18-05-2019 16:10 0 0 0.1 0 0
Savigliano 18-05-2019 16:15 0 0 0.1 0 0
Savigliano 18-05-2019 16:20 0 0 0.3 0 0
Savigliano 18-05-2019 16:25 0 0 0.4 0 0
Savigliano 18-05-2019 16:30 0 0 0.2 0 0
Savigliano 18-05-2019 16:35 0 0 0.2 0 0
Savigliano 18-05-2019 16:40 0 0 0.1 0 0
Savigliano 18-05-2019 16:45 0 0 0.2 0 0
Savigliano 18-05-2019 16:50 0 0 0.1 0 0
Savigliano 18-05-2019 17:05 0 0 0.1 0 0
Savigliano 18-05-2019 17:20 0 0 0.1 0 0
Savigliano 18-05-2019 17:30 0 0 0.1 0 0
Savigliano 18-05-2019 17:40 0 0 0.1 0 0
Savigliano 18-05-2019 17:50 0 0 0.1 0 0
Savigliano 18-05-2019 18:05 0 0 0.2 0 0
Savigliano 18-05-2019 18:10 0 0 0.2 0 0
Savigliano 18-05-2019 18:15 0 0 0.2 0 0
Savigliano 18-05-2019 18:20 0 0 0.1 0 0
Savigliano 18-05-2019 18:25 0 0 0.1 0 0
Savigliano 18-05-2019 18:40 0 0 0.1 0 0
Savigliano 18-05-2019 18:50 0 0 0.2 0 0
Savigliano 18-05-2019 19:10 0 0 0.1 0 0
Savigliano 18-05-2019 19:15 0 0 0.3 0 0
Savigliano 18-05-2019 19:20 0 0 0.2 0 0
Savigliano 18-05-2019 19:25 0 0 0.3 0 0
Savigliano 18-05-2019 19:30 0 0 0.2 0 0
Savigliano 18-05-2019 19:35 0 0 0.1 0 0
Savigliano 18-05-2019 19:40 0 0 0.1 0 0
Savigliano 18-05-2019 19:45 0 0 0.1 0 0
Savigliano 18-05-2019 19:50 0 0 0.2 0 0
Savigliano 18-05-2019 19:55 0 0 0.1 0 0
Savigliano 18-05-2019 20:05 0 0 0.2 0 0
Savigliano 18-05-2019 20:20 0 0 0.1 0 0
Savigliano 18-05-2019 20:55 0 0 0.1 0 0
Savigliano 19-05-2019 06:15 0 0 0.1 0 0
Savigliano 19-05-2019 06:40 0 0 0.1 0 0
Savigliano 19-05-2019 06:50 0 0 0.1 0 0
Savigliano 19-05-2019 06:55 0 0 0.1 0 0
Savigliano 19-05-2019 07:05 0 0 0.1 0 0
Savigliano 19-05-2019 07:25 0 0 0.1 0 0
Savigliano 19-05-2019 07:45 0 0 0.1 0 0
Savigliano 19-05-2019 08:10 0 0 0.1 0 0
Savigliano 19-05-2019 08:20 0 0 0.1 0 0
Savigliano 19-05-2019 08:45 0 0 0.1 0 0
Savigliano 19-05-2019 11:45 0 0 0.1 0 0
Savigliano 19-05-2019 11:55 0 0 0.1 0 0
Savigliano 19-05-2019 12:05 0 0 0.1 0 0
Savigliano 19-05-2019 12:15 0 0 0.1 0 0
Savigliano 19-05-2019 12:20 0 0 0.1 0 0
Savigliano 19-05-2019 12:30 0 0 0.1 0 0
Savigliano 19-05-2019 12:45 0 0 0.1 0 0
Savigliano 19-05-2019 13:05 0 0 0.1 0 0
Savigliano 19-05-2019 13:15 0 0 0.1 0 0

Riassuntivo giornaliero del 21-05-2019